Private Wetterstation Sandau
Wetterdaten: Montag, 12.03.2012
Datum Zeit Temp. A. Feuchte A. Luftdruck Regen Wind Richtung Richtung Taupunkt Windchill
12.03.2012 00:02 7,4 C 86 % 1027,3 hPa 0,0 l/m 6,5 km/h (2 Bft) N-NW 337 5,2 C 6,3 C
12.03.2012 00:07 7,3 C 86 % 1027,1 hPa 0,0 l/m 9,4 km/h (2 Bft) W-NW 292 5,1 C 5,5 C
12.03.2012 00:12 7,3 C 86 % 1027,1 hPa 0,0 l/m 24,8 km/h (4 Bft) W-NW 292 5,1 C 3,5 C
12.03.2012 00:17 7,3 C 87 % 1026,9 hPa 0,0 l/m 19,8 km/h (3 Bft) N-NO 22 5,3 C 4,0 C
12.03.2012 00:22 7,3 C 87 % 1027,1 hPa 0,0 l/m 20,5 km/h (4 Bft) W-NW 292 5,3 C 3,9 C
12.03.2012 00:27 7,4 C 87 % 1027,2 hPa 0,0 l/m 18,0 km/h (3 Bft) NW 315 5,4 C 4,3 C
12.03.2012 00:32 7,4 C 87 % 1026,9 hPa 0,0 l/m 19,8 km/h (3 Bft) W-SW 247 5,4 C 4,1 C
12.03.2012 00:37 7,4 C 87 % 1026,9 hPa 0,0 l/m 16,6 km/h (3 Bft) W-NW 292 5,4 C 4,5 C
12.03.2012 00:42 7,4 C 87 % 1026,9 hPa 0,0 l/m 7,9 km/h (2 Bft) W-NW 292 5,4 C 6,0 C
12.03.2012 00:47 7,4 C 87 % 1027,0 hPa 0,0 l/m 21,6 km/h (4 Bft) W-NW 292 5,4 C 3,9 C
12.03.2012 00:52 7,4 C 87 % 1027,0 hPa 0,0 l/m 9,4 km/h (2 Bft) W-NW 292 5,4 C 5,6 C
12.03.2012 00:57 7,4 C 87 % 1027,0 hPa 0,0 l/m 12,6 km/h (3 Bft) W-NW 292 5,4 C 5,1 C
12.03.2012 01:02 7,5 C 87 % 1026,8 hPa 0,0 l/m 13,3 km/h (3 Bft) W 270 5,5 C 5,1 C
12.03.2012 01:07 7,5 C 87 % 1026,8 hPa 0,0 l/m 13,3 km/h (3 Bft) W-NW 292 5,5 C 5,1 C
12.03.2012 01:12 7,5 C 87 % 1026,9 hPa 0,0 l/m 9,4 km/h (2 Bft) NW 315 5,5 C 5,8 C
12.03.2012 01:17 7,5 C 87 % 1026,9 hPa 0,0 l/m 15,8 km/h (3 Bft) N-NW 337 5,5 C 4,7 C
12.03.2012 01:22 7,5 C 87 % 1026,9 hPa 0,0 l/m 19,1 km/h (3 Bft) NW 315 5,5 C 4,3 C
12.03.2012 01:27 7,5 C 86 % 1027,0 hPa 0,0 l/m 10,4 km/h (2 Bft) N-NW 337 5,3 C 5,6 C
12.03.2012 01:32 7,5 C 86 % 1027,0 hPa 0,0 l/m 11,5 km/h (2 Bft) W-NW 292 5,3 C 5,4 C
12.03.2012 01:37 7,5 C 86 % 1026,8 hPa 0,0 l/m 6,5 km/h (2 Bft) NW 315 5,3 C 6,5 C
12.03.2012 01:42 7,5 C 86 % 1026,6 hPa 0,0 l/m 15,5 km/h (3 Bft) W-NW 292 5,3 C 4,8 C
12.03.2012 01:47 7,5 C 86 % 1026,6 hPa 0,0 l/m 7,2 km/h (2 Bft) W-NW 292 5,3 C 6,3 C
12.03.2012 01:52 7,5 C 86 % 1026,7 hPa 0,0 l/m 7,6 km/h (2 Bft) NW 315 5,3 C 6,2 C
12.03.2012 01:57 7,5 C 86 % 1026,6 hPa 0,0 l/m 6,1 km/h (2 Bft) W 270 5,3 C 6,6 C
12.03.2012 02:02 7,5 C 86 % 1026,6 hPa 0,0 l/m 18,7 km/h (3 Bft) N-NW 337 5,3 C 4,4 C
12.03.2012 02:07 7,5 C 86 % 1026,4 hPa 0,0 l/m 15,5 km/h (3 Bft) W-NW 292 5,3 C 4,8 C
12.03.2012 02:12 7,5 C 86 % 1026,4 hPa 0,0 l/m 18,0 km/h (3 Bft) W-NW 292 5,3 C 4,4 C
12.03.2012 02:17 7,5 C 86 % 1026,2 hPa 0,0 l/m 10,8 km/h (2 Bft) NW 315 5,3 C 5,5 C
12.03.2012 02:22 7,5 C 86 % 1026,3 hPa 0,0 l/m 15,5 km/h (3 Bft) N-NW 337 5,3 C 4,8 C
12.03.2012 02:27 7,5 C 86 % 1026,3 hPa 0,0 l/m 8,3 km/h (2 Bft) NW 315 5,3 C 6,0 C
12.03.2012 02:32 7,5 C 86 % 1026,3 hPa 0,0 l/m 13,0 km/h (3 Bft) W-NW 292 5,3 C 5,1 C
12.03.2012 02:37 7,4 C 86 % 1026,4 hPa 0,0 l/m 11,2 km/h (2 Bft) W 270 5,2 C 5,3 C
12.03.2012 02:42 7,5 C 86 % 1026,2 hPa 0,0 l/m 13,3 km/h (3 Bft) NW 315 5,3 C 5,1 C
12.03.2012 02:47 7,5 C 86 % 1026,2 hPa 0,0 l/m 18,7 km/h (3 Bft) W-NW 292 5,3 C 4,4 C
12.03.2012 02:52 7,5 C 86 % 1026,2 hPa 0,0 l/m 15,5 km/h (3 Bft) NW 315 5,3 C 4,8 C
12.03.2012 02:57 7,5 C 86 % 1026,3 hPa 0,0 l/m 19,4 km/h (3 Bft) W 270 5,3 C 4,3 C
12.03.2012 03:02 7,5 C 86 % 1026,4 hPa 0,0 l/m 7,2 km/h (2 Bft) O-NO 67 5,3 C 6,3 C
12.03.2012 03:07 7,5 C 86 % 1026,1 hPa 0,0 l/m 23,8 km/h (4 Bft) W-NW 292 5,3 C 3,8 C
12.03.2012 03:12 7,5 C 86 % 1026,1 hPa 0,0 l/m 13,7 km/h (3 Bft) W 270 5,3 C 5,0 C
12.03.2012 03:17 7,5 C 86 % 1026,0 hPa 0,0 l/m 9,4 km/h (2 Bft) W-NW 292 5,3 C 5,8 C
12.03.2012 03:22 7,5 C 86 % 1026,1 hPa 0,0 l/m 8,6 km/h (2 Bft) W-NW 292 5,3 C 5,9 C
12.03.2012 03:27 7,5 C 86 % 1026,1 hPa 0,0 l/m 8,3 km/h (2 Bft) W-NW 292 5,3 C 6,0 C
12.03.2012 03:32 7,5 C 86 % 1026,1 hPa 0,0 l/m 15,8 km/h (3 Bft) W-NW 292 5,3 C 4,7 C
12.03.2012 03:37 7,4 C 86 % 1026,1 hPa 0,0 l/m 15,8 km/h (3 Bft) NW 315 5,2 C 4,6 C
12.03.2012 03:42 7,4 C 86 % 1026,1 hPa 0,0 l/m 9,0 km/h (2 Bft) N-NW 337 5,2 C 5,7 C
12.03.2012 03:47 7,4 C 86 % 1026,1 hPa 0,0 l/m 11,9 km/h (2 Bft) W-NW 292 5,2 C 5,2 C
12.03.2012 03:52 7,4 C 86 % 1026,2 hPa 0,0 l/m 20,5 km/h (4 Bft) W-NW 292 5,2 C 4,0 C
12.03.2012 03:57 7,4 C 86 % 1026,2 hPa 0,0 l/m 11,5 km/h (2 Bft) W-NW 292 5,2 C 5,2 C
12.03.2012 04:02 7,4 C 86 % 1026,1 hPa 0,0 l/m 4,7 km/h (1 Bft) NO 45 5,2 C 6,9 C
12.03.2012 04:07 7,3 C 86 % 1026,1 hPa 0,0 l/m 24,5 km/h (4 Bft) W 270 5,1 C 3,5 C
12.03.2012 04:12 7,3 C 86 % 1025,9 hPa 0,0 l/m 6,5 km/h (2 Bft) SO 135 5,1 C 6,2 C
12.03.2012 04:17 7,3 C 86 % 1026,0 hPa 0,0 l/m 7,9 km/h (2 Bft) N 360 5,1 C 5,9 C
12.03.2012 04:22 7,3 C 86 % 1026,0 hPa 0,0 l/m 10,1 km/h (2 Bft) N-NW 337 5,1 C 5,4 C
12.03.2012 04:27 7,3 C 86 % 1025,9 hPa 0,0 l/m 13,0 km/h (3 Bft) W-NW 292 5,1 C 4,9 C
12.03.2012 04:32 7,3 C 86 % 1026,0 hPa 0,0 l/m 15,5 km/h (3 Bft) NW 315 5,1 C 4,5 C
12.03.2012 04:37 7,3 C 86 % 1025,9 hPa 0,0 l/m 14,0 km/h (3 Bft) NW 315 5,1 C 4,7 C
12.03.2012 04:42 7,3 C 87 % 1026,0 hPa 0,0 l/m 6,5 km/h (2 Bft) N-NW 337 5,3 C 6,2 C
12.03.2012 04:47 7,2 C 86 % 1025,8 hPa 0,0 l/m 6,5 km/h (2 Bft) NW 315 5,0 C 6,1 C
12.03.2012 04:52 7,2 C 86 % 1025,8 hPa 0,0 l/m 6,8 km/h (2 Bft) NW 315 5,0 C 6,0 C
12.03.2012 04:57 7,2 C 87 % 1025,8 hPa 0,0 l/m 14,8 km/h (3 Bft) NW 315 5,2 C 4,5 C
12.03.2012 05:02 7,2 C 87 % 1025,7 hPa 0,0 l/m 16,6 km/h (3 Bft) W-NW 292 5,2 C 4,2 C
12.03.2012 05:07 7,2 C 87 % 1025,9 hPa 0,0 l/m 14,8 km/h (3 Bft) NW 315 5,2 C 4,5 C
12.03.2012 05:12 7,2 C 87 % 1025,9 hPa 0,0 l/m 9,4 km/h (2 Bft) W-NW 292 5,2 C 5,4 C
12.03.2012 05:17 7,2 C 87 % 1025,8 hPa 0,0 l/m 9,0 km/h (2 Bft) NW 315 5,2 C 5,5 C
12.03.2012 05:22 7,2 C 87 % 1025,7 hPa 0,0 l/m 18,0 km/h (3 Bft) NW 315 5,2 C 4,1 C
12.03.2012 05:27 7,2 C 87 % 1025,7 hPa 0,0 l/m 17,3 km/h (3 Bft) NW 315 5,2 C 4,2 C
12.03.2012 05:32 7,2 C 87 % 1025,8 hPa 0,0 l/m 11,5 km/h (2 Bft) NW 315 5,2 C 5,0 C
12.03.2012 05:37 7,2 C 87 % 1025,8 hPa 0,0 l/m 6,8 km/h (2 Bft) W 270 5,2 C 6,0 C
12.03.2012 05:42 7,2 C 87 % 1025,8 hPa 0,0 l/m 11,2 km/h (2 Bft) W-NW 292 5,2 C 5,1 C
12.03.2012 05:47 7,2 C 88 % 1025,9 hPa 0,0 l/m 9,7 km/h (2 Bft) NW 315 5,3 C 5,3 C
12.03.2012 05:52 7,2 C 88 % 1025,9 hPa 0,0 l/m 11,2 km/h (2 Bft) W-SW 247 5,3 C 5,1 C
12.03.2012 05:57 7,2 C 88 % 1026,1 hPa 0,0 l/m 13,3 km/h (3 Bft) NW 315 5,3 C 4,7 C
12.03.2012 06:02 7,2 C 88 % 1026,2 hPa 0,0 l/m 9,0 km/h (2 Bft) N 360 5,3 C 5,5 C
12.03.2012 06:07 7,2 C 88 % 1026,2 hPa 0,0 l/m 7,9 km/h (2 Bft) NW 315 5,3 C 5,7 C
12.03.2012 06:12 7,2 C 88 % 1026,1 hPa 0,0 l/m 4,7 km/h (1 Bft) SO 135 5,3 C 6,7 C
12.03.2012 06:17 7,2 C 88 % 1026,1 hPa 0,0 l/m 22,7 km/h (4 Bft) NW 315 5,3 C 3,6 C
12.03.2012 06:22 7,2 C 88 % 1026,1 hPa 0,0 l/m 8,3 km/h (2 Bft) NW 315 5,3 C 5,6 C
12.03.2012 06:27 7,2 C 88 % 1026,2 hPa 0,0 l/m 15,8 km/h (3 Bft) N-NW 337 5,3 C 4,4 C
12.03.2012 06:32 7,2 C 88 % 1026,0 hPa 0,0 l/m 9,0 km/h (2 Bft) W-NW 292 5,3 C 5,5 C
12.03.2012 06:37 7,2 C 88 % 1026,3 hPa 0,0 l/m 5,8 km/h (2 Bft) W-NW 292 5,3 C 6,3 C
12.03.2012 06:42 7,2 C 88 % 1026,2 hPa 0,0 l/m 12,2 km/h (2 Bft) NW 315 5,3 C 4,9 C
12.03.2012 06:47 7,2 C 88 % 1026,1 hPa 0,0 l/m 10,1 km/h (2 Bft) W 270 5,3 C 5,3 C
12.03.2012 06:52 7,2 C 88 % 1026,2 hPa 0,0 l/m 8,3 km/h (2 Bft) W 270 5,3 C 5,6 C
12.03.2012 06:57 7,2 C 88 % 1026,0 hPa 0,0 l/m 10,1 km/h (2 Bft) W-NW 292 5,3 C 5,3 C
12.03.2012 07:02 7,2 C 88 % 1026,2 hPa 0,0 l/m 7,2 km/h (2 Bft) W 270 5,3 C 5,9 C
12.03.2012 07:07 7,2 C 88 % 1026,2 hPa 0,0 l/m 9,7 km/h (2 Bft) W 270 5,3 C 5,3 C
12.03.2012 07:12 7,3 C 88 % 1026,1 hPa 0,0 l/m 11,2 km/h (2 Bft) NW 315 5,4 C 5,2 C
12.03.2012 07:17 7,3 C 88 % 1026,3 hPa 0,0 l/m 7,6 km/h (2 Bft) W-NW 292 5,4 C 5,9 C
12.03.2012 07:22 7,3 C 88 % 1026,2 hPa 0,0 l/m 6,5 km/h (2 Bft) NW 315 5,4 C 6,2 C
12.03.2012 07:27 7,3 C 88 % 1026,5 hPa 0,0 l/m 8,3 km/h (2 Bft) W-NW 292 5,4 C 5,8 C
12.03.2012 07:32 7,2 C 88 % 1026,2 hPa 0,0 l/m 10,1 km/h (2 Bft) N-NW 337 5,3 C 5,3 C
12.03.2012 07:37 7,2 C 88 % 1026,3 hPa 0,0 l/m 21,6 km/h (4 Bft) N 360 5,3 C 3,7 C
12.03.2012 07:42 7,2 C 88 % 1026,2 hPa 0,0 l/m 15,8 km/h (3 Bft) W-NW 292 5,3 C 4,4 C
12.03.2012 07:47 7,2 C 88 % 1026,3 hPa 0,0 l/m 13,3 km/h (3 Bft) NW 315 5,3 C 4,7 C
12.03.2012 07:52 7,2 C 88 % 1026,2 hPa 0,0 l/m 5,8 km/h (2 Bft) W-NW 292 5,3 C 6,3 C
12.03.2012 07:57 7,2 C 88 % 1026,4 hPa 0,0 l/m 23,4 km/h (4 Bft) NW 315 5,3 C 3,5 C
12.03.2012 08:02 7,2 C 88 % 1026,4 hPa 0,0 l/m 8,3 km/h (2 Bft) N 360 5,3 C 5,6 C
12.03.2012 08:07 7,2 C 88 % 1026,4 hPa 0,0 l/m 17,3 km/h (3 Bft) W 270 5,3 C 4,2 C
12.03.2012 08:12 7,2 C 88 % 1026,2 hPa 0,0 l/m 22,3 km/h (4 Bft) NW 315 5,3 C 3,6 C
12.03.2012 08:17 7,2 C 88 % 1026,2 hPa 0,0 l/m 15,8 km/h (3 Bft) NW 315 5,3 C 4,4 C
12.03.2012 08:22 7,3 C 88 % 1026,4 hPa 0,0 l/m 11,9 km/h (2 Bft) W-SW 247 5,4 C 5,1 C
12.03.2012 08:27 7,2 C 88 % 1026,3 hPa 0,0 l/m 13,0 km/h (3 Bft) NW 315 5,3 C 4,8 C
12.03.2012 08:32 7,2 C 88 % 1026,5 hPa 0,0 l/m 11,5 km/h (2 Bft) N-NW 337 5,3 C 5,0 C
12.03.2012 08:37 7,3 C 88 % 1026,5 hPa 0,0 l/m 14,8 km/h (3 Bft) W-NW 292 5,4 C 4,6 C
12.03.2012 08:42 7,3 C 88 % 1026,5 hPa 0,0 l/m 5,8 km/h (2 Bft) W-NW 292 5,4 C 6,4 C
12.03.2012 08:47 7,3 C 87 % 1026,3 hPa 0,0 l/m 13,7 km/h (3 Bft) N-NW 337 5,3 C 4,8 C
12.03.2012 08:52 7,3 C 87 % 1026,5 hPa 0,0 l/m 15,8 km/h (3 Bft) N-NW 337 5,3 C 4,5 C
12.03.2012 08:57 7,3 C 87 % 1026,4 hPa 0,0 l/m 26,3 km/h (4 Bft) N 360 5,3 C 3,4 C
12.03.2012 09:02 7,3 C 87 % 1026,3 hPa 0,0 l/m 14,8 km/h (3 Bft) NW 315 5,3 C 4,6 C
12.03.2012 09:07 7,3 C 87 % 1026,3 hPa 0,0 l/m 13,7 km/h (3 Bft) NW 315 5,3 C 4,8 C
12.03.2012 09:12 7,3 C 87 % 1026,4 hPa 0,0 l/m 8,6 km/h (2 Bft) NW 315 5,3 C 5,7 C
12.03.2012 09:17 7,3 C 87 % 1026,4 hPa 0,0 l/m 10,1 km/h (2 Bft) W-NW 292 5,3 C 5,4 C
12.03.2012 09:22 7,3 C 87 % 1026,4 hPa 0,0 l/m 7,9 km/h (2 Bft) NW 315 5,3 C 5,9 C
12.03.2012 09:27 7,4 C 87 % 1026,4 hPa 0,0 l/m 8,3 km/h (2 Bft) N-NW 337 5,4 C 5,9 C
12.03.2012 09:32 7,4 C 86 % 1026,4 hPa 0,0 l/m 9,4 km/h (2 Bft) W-NW 292 5,2 C 5,6 C
12.03.2012 09:37 7,4 C 87 % 1026,4 hPa 0,0 l/m 13,3 km/h (3 Bft) W-SW 247 5,4 C 5,0 C
12.03.2012 09:42 7,5 C 86 % 1026,5 hPa 0,0 l/m 9,0 km/h (2 Bft) N-NW 337 5,3 C 5,8 C
12.03.2012 09:47 7,5 C 86 % 1026,4 hPa 0,0 l/m 10,8 km/h (2 Bft) W 270 5,3 C 5,5 C
12.03.2012 09:52 7,5 C 86 % 1026,4 hPa 0,0 l/m 11,2 km/h (2 Bft) NW 315 5,3 C 5,4 C
12.03.2012 09:57 7,6 C 86 % 1026,6 hPa 0,0 l/m 9,4 km/h (2 Bft) NW 315 5,4 C 5,9 C
12.03.2012 10:02 7,6 C 86 % 1026,6 hPa 0,0 l/m 5,0 km/h (1 Bft) W 270 5,4 C 7,0 C
12.03.2012 10:07 7,6 C 86 % 1026,7 hPa 0,0 l/m 10,4 km/h (2 Bft) W-NW 292 5,4 C 5,7 C
12.03.2012 10:12 7,8 C 86 % 1026,5 hPa 0,0 l/m 12,2 km/h (2 Bft) N 360 5,6 C 5,6 C
12.03.2012 10:17 7,8 C 86 % 1026,7 hPa 0,0 l/m 9,0 km/h (2 Bft) NW 315 5,6 C 6,2 C
12.03.2012 10:22 7,8 C 86 % 1026,6 hPa 0,0 l/m 14,0 km/h (3 Bft) NW 315 5,6 C 5,3 C
12.03.2012 10:27 7,8 C 86 % 1026,8 hPa 0,0 l/m 11,9 km/h (2 Bft) W-SW 247 5,6 C 5,7 C
12.03.2012 10:32 7,9 C 86 % 1026,6 hPa 0,0 l/m 12,2 km/h (2 Bft) NW 315 5,7 C 5,7 C
12.03.2012 10:37 7,9 C 86 % 1026,8 hPa 0,0 l/m 8,3 km/h (2 Bft) W-NW 292 5,7 C 6,5 C
12.03.2012 10:42 7,9 C 86 % 1026,6 hPa 0,0 l/m 7,9 km/h (2 Bft) W 270 5,7 C 6,6 C
12.03.2012 10:47 8,1 C 86 % 1026,8 hPa 0,0 l/m 11,5 km/h (2 Bft) W-NW 292 5,9 C 6,1 C
12.03.2012 10:52 8,1 C 85 % 1026,8 hPa 0,0 l/m 6,1 km/h (2 Bft) NW 315 5,7 C 7,3 C
12.03.2012 10:57 8,2 C 85 % 1026,9 hPa 0,0 l/m 16,6 km/h (3 Bft) W-NW 292 5,8 C 5,5 C
12.03.2012 11:02 8,2 C 85 % 1026,9 hPa 0,0 l/m 9,7 km/h (2 Bft) N-NW 337 5,8 C 6,5 C
12.03.2012 11:07 8,3 C 85 % 1026,8 hPa 0,0 l/m 10,4 km/h (2 Bft) W 270 5,9 C 6,5 C
12.03.2012 11:12 8,4 C 85 % 1026,9 hPa 0,0 l/m 7,6 km/h (2 Bft) N 360 6,0 C 7,2 C
12.03.2012 11:17 8,4 C 84 % 1026,9 hPa 0,0 l/m 22,3 km/h (4 Bft) NW 315 5,9 C 5,1 C
12.03.2012 11:22 8,5 C 84 % 1026,9 hPa 0,0 l/m 13,7 km/h (3 Bft) W 270 6,0 C 6,2 C
12.03.2012 11:27 8,5 C 84 % 1027,0 hPa 0,0 l/m 9,7 km/h (2 Bft) NW 315 6,0 C 6,9 C
12.03.2012 11:32 8,6 C 84 % 1026,9 hPa 0,0 l/m 13,3 km/h (3 Bft) W-NW 292 6,1 C 6,4 C
12.03.2012 11:37 8,7 C 84 % 1026,9 hPa 0,0 l/m 15,1 km/h (3 Bft) W-NW 292 6,2 C 6,3 C
12.03.2012 11:42 8,9 C 83 % 1026,9 hPa 0,0 l/m 7,9 km/h (2 Bft) W-NW 292 6,2 C 7,7 C
12.03.2012 11:47 8,9 C 83 % 1026,8 hPa 0,0 l/m 17,3 km/h (3 Bft) W-NW 292 6,2 C 6,3 C
12.03.2012 11:52 8,9 C 82 % 1026,6 hPa 0,0 l/m 9,4 km/h (2 Bft) NW 315 6,0 C 7,4 C
12.03.2012 11:57 9,0 C 82 % 1026,9 hPa 0,0 l/m 15,1 km/h (3 Bft) W-NW 292 6,1 C 6,7 C
12.03.2012 12:02 9,0 C 82 % 1026,7 hPa 0,0 l/m 14,8 km/h (3 Bft) W 270 6,1 C 6,7 C
12.03.2012 12:07 8,9 C 82 % 1026,8 hPa 0,0 l/m 14,8 km/h (3 Bft) NW 315 6,0 C 6,6 C
12.03.2012 12:12 9,0 C 82 % 1026,7 hPa 0,0 l/m 12,2 km/h (2 Bft) NW 315 6,1 C 7,1 C
12.03.2012 12:17 9,0 C 82 % 1026,7 hPa 0,0 l/m 9,0 km/h (2 Bft) W 270 6,1 C 7,6 C
12.03.2012 12:22 9,1 C 81 % 1026,7 hPa 0,0 l/m 15,8 km/h (3 Bft) N-NW 337 6,0 C 6,7 C
12.03.2012 12:27 9,2 C 81 % 1026,8 hPa 0,0 l/m 7,9 km/h (2 Bft) W-SW 247 6,1 C 8,1 C
12.03.2012 12:32 9,2 C 81 % 1026,8 hPa 0,0 l/m 12,2 km/h (2 Bft) W 270 6,1 C 7,3 C
12.03.2012 12:37 9,3 C 81 % 1026,6 hPa 0,0 l/m 4,0 km/h (1 Bft) NW 315 6,2 C 9,3 C
12.03.2012 12:42 9,3 C 81 % 1026,6 hPa 0,0 l/m 11,9 km/h (2 Bft) NW 315 6,2 C 7,5 C
12.03.2012 12:47 9,3 C 81 % 1026,7 hPa 0,0 l/m 16,9 km/h (3 Bft) NW 315 6,2 C 6,8 C
12.03.2012 12:52 9,4 C 81 % 1026,6 hPa 0,0 l/m 16,6 km/h (3 Bft) W-NW 292 6,3 C 7,0 C
12.03.2012 12:57 9,5 C 81 % 1026,5 hPa 0,0 l/m 6,5 km/h (2 Bft) N-NW 337 6,4 C 8,8 C
12.03.2012 13:02 9,6 C 81 % 1026,7 hPa 0,0 l/m 10,1 km/h (2 Bft) N-NW 337 6,5 C 8,1 C
12.03.2012 13:07 9,8 C 80 % 1026,5 hPa 0,0 l/m 19,8 km/h (3 Bft) NW 315 6,5 C 7,1 C
12.03.2012 13:12 9,8 C 80 % 1026,6 hPa 0,0 l/m 16,6 km/h (3 Bft) W 270 6,5 C 7,5 C
12.03.2012 13:17 9,9 C 80 % 1026,7 hPa 0,0 l/m 19,4 km/h (3 Bft) NW 315 6,6 C 7,3 C
12.03.2012 13:22 10,0 C 79 % 1026,5 hPa 0,0 l/m 12,2 km/h (2 Bft) W 270 6,5 C 8,3 C
12.03.2012 13:27 10,1 C 79 % 1026,5 hPa 0,0 l/m 6,1 km/h (2 Bft) W 270 6,6 C 10,1 C
12.03.2012 13:32 10,2 C 79 % 1026,5 hPa 0,0 l/m 24,1 km/h (4 Bft) W 270 6,7 C 10,2 C
12.03.2012 13:37 10,3 C 79 % 1026,5 hPa 0,0 l/m 6,5 km/h (2 Bft) N-NW 337 6,8 C 10,3 C
12.03.2012 13:42 10,4 C 79 % 1026,5 hPa 0,0 l/m 8,6 km/h (2 Bft) NW 315 6,9 C 10,4 C
12.03.2012 13:47 10,4 C 79 % 1026,4 hPa 0,0 l/m 8,3 km/h (2 Bft) NW 315 6,9 C 10,4 C
12.03.2012 13:52 10,6 C 78 % 1026,5 hPa 0,0 l/m 15,8 km/h (3 Bft) W-NW 292 6,9 C 10,6 C
12.03.2012 13:57 10,6 C 78 % 1026,4 hPa 0,0 l/m 15,1 km/h (3 Bft) W-NW 292 6,9 C 10,6 C
12.03.2012 14:02 10,6 C 77 % 1026,4 hPa 0,0 l/m 9,4 km/h (2 Bft) W-NW 292 6,7 C 10,6 C
12.03.2012 14:07 10,6 C 77 % 1026,5 hPa 0,0 l/m 19,4 km/h (3 Bft) W 270 6,7 C 10,6 C
12.03.2012 14:12 10,8 C 77 % 1026,5 hPa 0,0 l/m 22,0 km/h (4 Bft) NW 315 6,9 C 10,8 C
12.03.2012 14:17 10,8 C 77 % 1026,4 hPa 0,0 l/m 11,5 km/h (2 Bft) W 270 6,9 C 10,8 C
12.03.2012 14:22 10,9 C 77 % 1026,4 hPa 0,0 l/m 6,8 km/h (2 Bft) N-NW 337 7,0 C 10,9 C
12.03.2012 14:27 10,9 C 77 % 1026,4 hPa 0,0 l/m 8,6 km/h (2 Bft) NO 45 7,0 C 10,9 C
12.03.2012 14:32 10,9 C 77 % 1026,4 hPa 0,0 l/m 14,8 km/h (3 Bft) W-NW 292 7,0 C 10,9 C
12.03.2012 14:37 11,0 C 76 % 1026,5 hPa 0,0 l/m 20,2 km/h (4 Bft) W-NW 292 6,9 C 11,0 C
12.03.2012 14:42 11,0 C 76 % 1026,6 hPa 0,0 l/m 16,6 km/h (3 Bft) NW 315 6,9 C 11,0 C
12.03.2012 14:47 10,9 C 76 % 1026,8 hPa 0,0 l/m 15,1 km/h (3 Bft) W-SW 247 6,8 C 10,9 C
12.03.2012 14:52 10,9 C 76 % 1026,6 hPa 0,0 l/m 16,6 km/h (3 Bft) W 270 6,8 C 10,9 C
12.03.2012 14:57 10,9 C 76 % 1026,8 hPa 0,0 l/m 8,6 km/h (2 Bft) NW 315 6,8 C 10,9 C
12.03.2012 15:02 10,9 C 76 % 1026,8 hPa 0,0 l/m 16,9 km/h (3 Bft) W 270 6,8 C 10,9 C
12.03.2012 15:07 11,0 C 76 % 1026,9 hPa 0,0 l/m 15,8 km/h (3 Bft) NW 315 6,9 C 11,0 C
12.03.2012 15:12 11,1 C 75 % 1026,9 hPa 0,0 l/m 17,3 km/h (3 Bft) W 270 6,8 C 11,1 C
12.03.2012 15:17 10,9 C 76 % 1026,8 hPa 0,0 l/m 17,3 km/h (3 Bft) W-NW 292 6,8 C 10,9 C
12.03.2012 15:22 10,9 C 76 % 1026,8 hPa 0,0 l/m 13,3 km/h (3 Bft) N-NW 337 6,8 C 10,9 C
12.03.2012 15:27 10,9 C 76 % 1027,0 hPa 0,0 l/m 18,0 km/h (3 Bft) W 270 6,8 C 10,9 C
12.03.2012 15:32 10,9 C 76 % 1027,1 hPa 0,0 l/m 16,6 km/h (3 Bft) W-NW 292 6,8 C 10,9 C
12.03.2012 15:37 10,7 C 76 % 1027,2 hPa 0,0 l/m 9,7 km/h (2 Bft) W-NW 292 6,6 C 10,7 C
12.03.2012 15:42 10,6 C 76 % 1027,0 hPa 0,0 l/m 14,4 km/h (3 Bft) NW 315 6,5 C 10,6 C
12.03.2012 15:47 10,5 C 77 % 1027,0 hPa 0,0 l/m 11,5 km/h (2 Bft) W 270 6,6 C 10,5 C
12.03.2012 15:52 10,4 C 77 % 1027,0 hPa 0,0 l/m 20,9 km/h (4 Bft) W 270 6,5 C 10,4 C
12.03.2012 15:57 10,4 C 77 % 1027,0 hPa 0,0 l/m 22,3 km/h (4 Bft) W-NW 292 6,5 C 10,4 C
12.03.2012 16:02 10,3 C 77 % 1027,1 hPa 0,0 l/m 11,2 km/h (2 Bft) W-NW 292 6,4 C 10,3 C
12.03.2012 16:07 10,3 C 78 % 1027,2 hPa 0,0 l/m 11,2 km/h (2 Bft) W-NW 292 6,6 C 10,3 C
12.03.2012 16:12 10,3 C 78 % 1027,1 hPa 0,0 l/m 18,4 km/h (3 Bft) W-NW 292 6,6 C 10,3 C
12.03.2012 16:17 10,3 C 78 % 1027,2 hPa 0,0 l/m 17,3 km/h (3 Bft) W-NW 292 6,6 C 10,3 C
12.03.2012 16:22 10,2 C 78 % 1027,2 hPa 0,0 l/m 7,6 km/h (2 Bft) NW 315 6,5 C 10,2 C
12.03.2012 16:27 10,2 C 78 % 1027,0 hPa 0,0 l/m 19,1 km/h (3 Bft) W 270 6,5 C 10,2 C
12.03.2012 16:32 10,2 C 78 % 1027,1 hPa 0,0 l/m 10,8 km/h (2 Bft) W-NW 292 6,5 C 10,2 C
12.03.2012 16:37 10,1 C 78 % 1027,2 hPa 0,0 l/m 9,0 km/h (2 Bft) W 270 6,4 C 10,1 C
12.03.2012 16:42 10,1 C 78 % 1027,2 hPa 0,0 l/m 11,5 km/h (2 Bft) W 270 6,4 C 10,1 C
12.03.2012 16:47 10,1 C 78 % 1027,3 hPa 0,0 l/m 15,8 km/h (3 Bft) NW 315 6,4 C 10,1 C
12.03.2012 16:52 10,1 C 78 % 1027,2 hPa 0,0 l/m 8,3 km/h (2 Bft) W-NW 292 6,4 C 10,1 C
12.03.2012 16:57 9,9 C 78 % 1027,3 hPa 0,0 l/m 18,0 km/h (3 Bft) N-NW 337 6,2 C 7,5 C
12.03.2012 17:02 9,9 C 78 % 1027,4 hPa 0,0 l/m 22,0 km/h (4 Bft) W 270 6,2 C 7,1 C
12.03.2012 17:07 9,9 C 79 % 1027,3 hPa 0,0 l/m 11,2 km/h (2 Bft) W-NW 292 6,4 C 8,3 C
12.03.2012 17:12 9,9 C 79 % 1027,4 hPa 0,0 l/m 16,2 km/h (3 Bft) W-NW 292 6,4 C 7,6 C
12.03.2012 17:17 9,8 C 79 % 1027,4 hPa 0,0 l/m 10,8 km/h (2 Bft) W-NW 292 6,3 C 8,3 C
12.03.2012 17:22 9,8 C 79 % 1027,4 hPa 0,0 l/m 24,5 km/h (4 Bft) NW 315 6,3 C 6,7 C
12.03.2012 17:27 9,6 C 79 % 1027,4 hPa 0,0 l/m 18,0 km/h (3 Bft) W-NW 292 6,1 C 7,1 C
12.03.2012 17:32 9,6 C 80 % 1027,5 hPa 0,0 l/m 20,2 km/h (4 Bft) NW 315 6,3 C 6,9 C
12.03.2012 17:37 9,5 C 80 % 1027,3 hPa 0,0 l/m 11,9 km/h (2 Bft) NW 315 6,2 C 7,7 C
12.03.2012 17:42 9,5 C 80 % 1027,5 hPa 0,0 l/m 10,1 km/h (2 Bft) W-NW 292 6,2 C 8,0 C
12.03.2012 17:47 9,4 C 80 % 1027,5 hPa 0,0 l/m 13,3 km/h (3 Bft) W 270 6,1 C 7,4 C
12.03.2012 17:52 9,4 C 80 % 1027,5 hPa 0,0 l/m 14,4 km/h (3 Bft) W-NW 292 6,1 C 7,3 C
12.03.2012 17:57 9,4 C 80 % 1027,7 hPa 0,0 l/m 11,5 km/h (2 Bft) NW 315 6,1 C 7,7 C
12.03.2012 18:02 9,3 C 80 % 1027,7 hPa 0,0 l/m 11,2 km/h (2 Bft) W-NW 292 6,0 C 7,6 C
12.03.2012 18:07 9,3 C 80 % 1027,8 hPa 0,0 l/m 13,0 km/h (3 Bft) W 270 6,0 C 7,3 C
12.03.2012 18:12 9,3 C 80 % 1027,8 hPa 0,0 l/m 11,9 km/h (2 Bft) W 270 6,0 C 7,5 C
12.03.2012 18:17 9,3 C 80 % 1027,8 hPa 0,0 l/m 17,6 km/h (3 Bft) W-NW 292 6,0 C 6,7 C
12.03.2012 18:22 9,2 C 80 % 1027,7 hPa 0,0 l/m 7,6 km/h (2 Bft) W-NW 292 5,9 C 8,2 C
12.03.2012 18:27 9,2 C 81 % 1027,9 hPa 0,0 l/m 24,1 km/h (4 Bft) W-NW 292 6,1 C 6,0 C
12.03.2012 18:32 9,2 C 81 % 1027,9 hPa 0,0 l/m 8,3 km/h (2 Bft) NW 315 6,1 C 8,0 C
12.03.2012 18:37 9,2 C 81 % 1028,0 hPa 0,0 l/m 10,8 km/h (2 Bft) W 270 6,1 C 7,5 C
12.03.2012 18:42 9,2 C 81 % 1027,9 hPa 0,0 l/m 6,5 km/h (2 Bft) W-NW 292 6,1 C 8,4 C
12.03.2012 18:47 9,1 C 81 % 1028,0 hPa 0,0 l/m 8,3 km/h (2 Bft) W 270 6,0 C 7,9 C
12.03.2012 18:52 9,1 C 81 % 1028,0 hPa 0,0 l/m 7,2 km/h (2 Bft) W-NW 292 6,0 C 8,1 C
12.03.2012 18:57 9,1 C 81 % 1028,0 hPa 0,0 l/m 17,3 km/h (3 Bft) W-NW 292 6,0 C 6,5 C
12.03.2012 19:02 9,1 C 81 % 1028,1 hPa 0,0 l/m 18,4 km/h (3 Bft) N 360 6,0 C 6,4 C
12.03.2012 19:07 9,1 C 81 % 1028,1 hPa 0,0 l/m 3,6 km/h (1 Bft) W 270 6,0 C 9,1 C
12.03.2012 19:12 9,1 C 81 % 1028,0 hPa 0,0 l/m 6,1 km/h (2 Bft) W-NW 292 6,0 C 8,4 C
12.03.2012 19:17 9,1 C 81 % 1028,1 hPa 0,0 l/m 9,0 km/h (2 Bft) W-NW 292 6,0 C 7,7 C
12.03.2012 19:22 9,0 C 81 % 1028,3 hPa 0,0 l/m 6,8 km/h (2 Bft) W-NW 292 5,9 C 8,1 C
12.03.2012 19:27 9,0 C 81 % 1028,3 hPa 0,0 l/m 10,8 km/h (2 Bft) W-NW 292 5,9 C 7,3 C
12.03.2012 19:32 9,0 C 81 % 1028,3 hPa 0,0 l/m 12,2 km/h (2 Bft) W-SW 247 5,9 C 7,1 C
12.03.2012 19:37 9,0 C 81 % 1028,4 hPa 0,0 l/m 10,1 km/h (2 Bft) W-NW 292 5,9 C 7,4 C
12.03.2012 19:42 8,9 C 81 % 1028,3 hPa 0,0 l/m 12,6 km/h (3 Bft) W 270 5,8 C 6,9 C
12.03.2012 19:47 8,9 C 81 % 1028,4 hPa 0,0 l/m 10,1 km/h (2 Bft) NW 315 5,8 C 7,3 C
12.03.2012 19:52 8,9 C 82 % 1028,4 hPa 0,0 l/m 10,1 km/h (2 Bft) W-NW 292 6,0 C 7,3 C
12.03.2012 19:57 8,9 C 82 % 1028,5 hPa 0,0 l/m 11,2 km/h (2 Bft) W 270 6,0 C 7,1 C
12.03.2012 20:02 8,8 C 82 % 1028,4 hPa 0,0 l/m 10,8 km/h (2 Bft) NW 315 5,9 C 7,1 C
12.03.2012 20:07 8,8 C 82 % 1028,3 hPa 0,0 l/m 8,6 km/h (2 Bft) W 270 5,9 C 7,5 C
12.03.2012 20:12 8,7 C 82 % 1028,4 hPa 0,0 l/m 9,7 km/h (2 Bft) W 270 5,8 C 7,1 C
12.03.2012 20:17 8,7 C 82 % 1028,7 hPa 0,0 l/m 14,4 km/h (3 Bft) W 270 5,8 C 6,4 C
12.03.2012 20:22 8,6 C 82 % 1028,6 hPa 0,0 l/m 11,2 km/h (2 Bft) NW 315 5,7 C 6,7 C
12.03.2012 20:27 8,6 C 82 % 1028,7 hPa 0,0 l/m 14,4 km/h (3 Bft) W 270 5,7 C 6,3 C
12.03.2012 20:32 8,5 C 82 % 1028,7 hPa 0,0 l/m 19,8 km/h (3 Bft) W-NW 292 5,6 C 5,5 C
12.03.2012 20:37 8,5 C 82 % 1028,7 hPa 0,0 l/m 14,4 km/h (3 Bft) NW 315 5,6 C 6,1 C
12.03.2012 20:42 8,4 C 83 % 1028,7 hPa 0,0 l/m 14,4 km/h (3 Bft) W-NW 292 5,7 C 6,0 C
12.03.2012 20:47 8,4 C 83 % 1028,8 hPa 0,0 l/m 14,8 km/h (3 Bft) W 270 5,7 C 6,0 C
12.03.2012 20:52 8,3 C 83 % 1028,9 hPa 0,0 l/m 21,2 km/h (4 Bft) W-NW 292 5,6 C 5,1 C
12.03.2012 20:57 8,3 C 83 % 1029,0 hPa 0,0 l/m 12,2 km/h (2 Bft) W-NW 292 5,6 C 6,2 C
12.03.2012 21:02 8,2 C 83 % 1028,9 hPa 0,0 l/m 11,2 km/h (2 Bft) NW 315 5,5 C 6,3 C
12.03.2012 21:07 8,2 C 83 % 1028,9 hPa 0,0 l/m 13,0 km/h (3 Bft) W-NW 292 5,5 C 6,0 C
12.03.2012 21:12 8,1 C 83 % 1028,9 hPa 0,0 l/m 13,3 km/h (3 Bft) W 270 5,4 C 5,8 C
12.03.2012 21:17 8,1 C 83 % 1029,0 hPa 0,0 l/m 7,9 km/h (2 Bft) W 270 5,4 C 6,8 C
12.03.2012 21:22 8,1 C 83 % 1029,1 hPa 0,0 l/m 15,5 km/h (3 Bft) W 270 5,4 C 5,5 C
12.03.2012 21:27 8,1 C 83 % 1029,0 hPa 0,0 l/m 9,7 km/h (2 Bft) W 270 5,4 C 6,4 C
12.03.2012 21:32 8,0 C 83 % 1029,0 hPa 0,0 l/m 7,6 km/h (2 Bft) W-NW 292 5,3 C 6,8 C
12.03.2012 21:37 7,9 C 84 % 1029,1 hPa 0,0 l/m 9,4 km/h (2 Bft) NW 315 5,4 C 6,2 C
12.03.2012 21:42 7,9 C 84 % 1029,2 hPa 0,0 l/m 5,8 km/h (2 Bft) W-NW 292 5,4 C 7,1 C
12.03.2012 21:47 7,9 C 84 % 1029,1 hPa 0,0 l/m 7,6 km/h (2 Bft) W 270 5,4 C 6,6 C
12.03.2012 21:52 7,9 C 84 % 1029,2 hPa 0,0 l/m 17,6 km/h (3 Bft) W-NW 292 5,4 C 5,0 C
12.03.2012 21:57 7,9 C 84 % 1029,3 hPa 0,0 l/m 17,3 km/h (3 Bft) W-NW 292 5,4 C 5,0 C
12.03.2012 22:02 7,9 C 84 % 1029,2 hPa 0,0 l/m 9,4 km/h (2 Bft) W-SW 247 5,4 C 6,2 C
12.03.2012 22:07 7,8 C 84 % 1029,2 hPa 0,0 l/m 15,5 km/h (3 Bft) W-NW 292 5,3 C 5,1 C
12.03.2012 22:12 7,8 C 84 % 1029,1 hPa 0,0 l/m 13,0 km/h (3 Bft) W-NW 292 5,3 C 5,5 C
12.03.2012 22:17 7,8 C 84 % 1029,0 hPa 0,0 l/m 10,8 km/h (2 Bft) W 270 5,3 C 5,9 C
12.03.2012 22:22 7,8 C 85 % 1029,1 hPa 0,0 l/m 14,8 km/h (3 Bft) NW 315 5,4 C 5,2 C
12.03.2012 22:27 7,8 C 85 % 1029,1 hPa 0,0 l/m 8,6 km/h (2 Bft) W 270 5,4 C 6,3 C
12.03.2012 22:32 7,8 C 85 % 1029,0 hPa 0,0 l/m 14,0 km/h (3 Bft) W 270 5,4 C 5,3 C
12.03.2012 22:37 7,8 C 85 % 1029,0 hPa 0,0 l/m 11,9 km/h (2 Bft) W-NW 292 5,4 C 5,7 C
12.03.2012 22:42 7,8 C 85 % 1029,1 hPa 0,0 l/m 7,2 km/h (2 Bft) W-NW 292 5,4 C 6,6 C
12.03.2012 22:47 7,8 C 85 % 1029,2 hPa 0,0 l/m 13,0 km/h (3 Bft) W-SW 247 5,4 C 5,5 C
12.03.2012 22:52 7,8 C 86 % 1028,9 hPa 0,0 l/m 24,8 km/h (4 Bft) W-NW 292 5,6 C 4,1 C
12.03.2012 22:57 7,6 C 86 % 1029,2 hPa 0,0 l/m 23,4 km/h (4 Bft) W 270 5,4 C 4,0 C
12.03.2012 23:02 7,6 C 86 % 1029,3 hPa 0,0 l/m 20,2 km/h (4 Bft) W-NW 292 5,4 C 4,3 C
12.03.2012 23:07 7,6 C 86 % 1029,3 hPa 0,0 l/m 9,7 km/h (2 Bft) W-SW 247 5,4 C 5,8 C
12.03.2012 23:12 7,6 C 86 % 1029,5 hPa 0,0 l/m 8,6 km/h (2 Bft) W-NW 292 5,4 C 6,1 C
12.03.2012 23:17 7,5 C 86 % 1029,6 hPa 0,0 l/m 13,7 km/h (3 Bft) W 270 5,3 C 5,0 C
12.03.2012 23:22 7,5 C 86 % 1029,6 hPa 0,0 l/m 11,2 km/h (2 Bft) W 270 5,3 C 5,4 C
12.03.2012 23:27 7,5 C 87 % 1029,5 hPa 0,0 l/m 8,3 km/h (2 Bft) W-SW 247 5,5 C 6,0 C
12.03.2012 23:32 7,5 C 87 % 1029,6 hPa 0,0 l/m 8,3 km/h (2 Bft) W-NW 292 5,5 C 6,0 C
12.03.2012 23:37 7,4 C 87 % 1029,5 hPa 0,0 l/m 11,5 km/h (2 Bft) W-NW 292 5,4 C 5,2 C
12.03.2012 23:42 7,4 C 87 % 1029,6 hPa 0,0 l/m 9,7 km/h (2 Bft) W-NW 292 5,4 C 5,6 C
12.03.2012 23:47 7,4 C 87 % 1029,7 hPa 0,0 l/m 10,1 km/h (2 Bft) W-SW 247 5,4 C 5,5 C
12.03.2012 23:52 7,4 C 87 % 1029,7 hPa 0,0 l/m 9,0 km/h (2 Bft) W 270 5,4 C 5,7 C
12.03.2012 23:57 7,4 C 87 % 1029,5 hPa 0,0 l/m 16,2 km/h (3 Bft) W 270 5,4 C 4,5 C
_ Min-Zeit 04:47 15:12 05:02 - 19:07 - - 04:47 08:57
Minimum _ 7,2 C 75 % 1025,7 hPa - 3,6 km/h (1 Bft) - - 5,0 C 3,4 C
_ Max-Zeit 15:12 05:47 23:47 00:02 08:57 - - 14:22 15:12
Maximum _ 11,1 C 88 % 1029,7 hPa 0,0 l/m 26,3 km/h
N (4 Bft)
- - 7,0 C 11,1 C
Durchschnitt _ 8,4 C 84 % 1027,1 hPa #0,0 l/m 12,7 km/h (3 Bft) W-NW - 5,7 C 6,6 C
(c) by David Heller